Time;durP1;ratioP1;P1;durP2;ratioP2;P2;SDS_P1;SDS_P2;PMS_P1;PMS_P2;Temp;Humidity;BMP_temperature;BMP_pressure;BME280_temperature;BME280_humidity;BME280_pressure;Samples;Min_cycle;Max_cycle;Signal;HPM_P1;HPM_P2
2022/06/07 00:01:12;;;;;;;11.85;7.00;;;13.10;99.90;;;;;;5019693;28;20053;-59
2022/06/07 00:03:37;;;;;;;11.25;7.07;;;13.20;99.90;;;;;;5018619;28;20034;-58
2022/06/07 00:06:03;;;;;;;8.35;6.50;;;13.20;99.90;;;;;;5019714;28;20085;-58
2022/06/07 00:08:30;;;;;;;7.57;6.10;;;13.20;99.90;;;;;;5019149;28;20322;-58
2022/06/07 00:10:56;;;;;;;9.15;5.95;;;13.20;99.90;;;;;;5019027;28;20048;-58
2022/06/07 00:13:21;;;;;;;8.60;5.65;;;13.20;99.90;;;;;;5019667;28;20302;-57
2022/06/07 00:15:47;;;;;;;7.47;5.53;;;13.10;99.90;;;;;;5019828;28;20042;-58
2022/06/07 00:18:14;;;;;;;9.80;5.40;;;13.10;99.90;;;;;;5018867;28;20406;-58
2022/06/07 00:20:42;;;;;;;7.05;4.50;;;13.00;99.90;;;;;;5019793;28;20393;-58
2022/06/07 00:23:15;;;;;;;6.25;4.90;;;13.00;99.90;;;;;;5019380;28;20029;-59
2022/06/07 00:25:43;;;;;;;6.90;4.75;;;13.00;99.90;;;;;;5019796;28;20038;-58
2022/06/07 00:28:09;;;;;;;8.23;4.80;;;13.00;99.90;;;;;;5018675;28;20061;-58
2022/06/07 00:30:35;;;;;;;9.55;4.63;;;13.00;99.90;;;;;;5018624;28;20045;-58
2022/06/07 00:33:01;;;;;;;4.85;3.83;;;13.00;99.90;;;;;;5019289;28;20030;-58
2022/06/07 00:35:28;;;;;;;7.13;4.75;;;13.00;99.90;;;;;;5019061;28;20428;-59
2022/06/07 00:37:54;;;;;;;7.05;4.28;;;13.00;99.90;;;;;;5019290;28;20105;-58
2022/06/07 00:40:20;;;;;;;7.88;4.60;;;13.00;99.90;;;;;;5018411;28;20121;-58
2022/06/07 00:42:46;;;;;;;5.82;4.18;;;13.00;99.90;;;;;;5019036;28;20390;-59
2022/06/07 00:45:18;;;;;;;6.55;4.63;;;13.00;99.90;;;;;;5019058;28;20103;-58
2022/06/07 00:47:44;;;;;;;7.43;4.13;;;12.90;99.90;;;;;;5019035;28;20366;-58
2022/06/07 00:50:30;;;;;;;9.48;4.25;;;12.90;99.90;;;;;;5018259;28;20061;-58
2022/06/07 00:52:56;;;;;;;5.55;3.78;;;13.00;99.90;;;;;;5018287;28;20049;-58
2022/06/07 00:55:22;;;;;;;5.07;3.60;;;13.00;99.90;;;;;;5018854;28;20030;-58
2022/06/07 00:57:52;;;;;;;8.95;3.60;;;13.00;99.90;;;;;;5018013;28;20038;-58
2022/06/07 01:00:38;;;;;;;7.57;3.20;;;13.10;99.90;;;;;;5017834;28;20113;-58
2022/06/07 01:03:04;;;;;;;6.03;3.40;;;13.00;99.90;;;;;;5017998;28;20040;-59
2022/06/07 01:05:30;;;;;;;8.95;3.67;;;12.90;99.90;;;;;;5017920;28;20394;-59
2022/06/07 01:10:51;;;;;;;7.53;2.97;;;12.80;99.90;;;;;;5017896;28;20355;-59
2022/06/07 01:13:25;;;;;;;7.15;3.30;;;12.80;99.90;;;;;;5017628;28;20057;-58
2022/06/07 01:15:57;;;;;;;5.07;3.00;;;12.80;99.90;;;;;;5017451;28;20393;-58
2022/06/07 01:18:23;;;;;;;6.07;3.00;;;12.70;99.90;;;;;;5017928;28;20022;-58
2022/06/07 01:21:18;;;;;;;5.22;3.15;;;12.80;99.90;;;;;;5017637;28;20018;-58
2022/06/07 01:23:46;;;;;;;6.15;2.88;;;12.80;99.90;;;;;;5017681;28;20026;-58
2022/06/07 01:26:15;;;;;;;3.97;2.60;;;12.80;99.90;;;;;;5017552;28;20108;-59
2022/06/07 01:28:41;;;;;;;5.20;2.42;;;12.80;99.90;;;;;;5017478;28;20065;-59
2022/06/07 01:31:08;;;;;;;3.75;2.47;;;12.80;99.90;;;;;;5017504;28;20045;-59
2022/06/07 01:33:34;;;;;;;4.30;2.40;;;12.80;99.90;;;;;;5017406;28;20030;-58
2022/06/07 01:36:04;;;;;;;6.15;2.90;;;12.80;99.90;;;;;;5018006;28;20029;-59
2022/06/07 01:38:35;;;;;;;6.57;2.80;;;12.70;99.90;;;;;;5017371;28;20160;-59
2022/06/07 01:43:46;;;;;;;3.60;2.60;;;12.70;99.90;;;;;;5018071;28;20045;-59
2022/06/07 01:46:12;;;;;;;4.65;2.92;;;12.70;99.90;;;;;;5017991;28;20030;-60
2022/06/07 01:48:38;;;;;;;5.90;2.70;;;12.70;99.90;;;;;;5017938;28;20038;-59
2022/06/07 01:51:06;;;;;;;4.05;2.67;;;12.70;99.90;;;;;;5018118;28;20030;-59
2022/06/07 01:53:33;;;;;;;5.85;2.47;;;12.70;99.90;;;;;;5017832;28;20143;-60
2022/06/07 01:56:08;;;;;;;7.65;2.80;;;12.80;99.90;;;;;;5016955;28;20029;-59
2022/06/07 01:58:35;;;;;;;8.95;3.00;;;12.80;99.90;;;;;;5017239;28;20408;-59
2022/06/07 02:01:01;;;;;;;5.00;2.88;;;12.80;99.90;;;;;;5016723;28;20038;-59
2022/06/07 02:03:27;;;;;;;5.95;2.30;;;12.70;99.90;;;;;;5017757;28;20402;-60
2022/06/07 02:06:05;;;;;;;4.57;2.75;;;12.70;99.90;;;;;;5017591;28;20117;-59
2022/06/07 02:08:32;;;;;;;5.85;2.83;;;12.70;99.90;;;;;;5016881;28;20030;-59
2022/06/07 02:11:08;;;;;;;5.18;2.65;;;12.60;99.90;;;;;;5016796;28;20026;-59
2022/06/07 02:13:36;;;;;;;10.55;7.32;;;12.60;99.90;;;;;;5016940;28;20041;-59
2022/06/07 02:16:02;;;;;;;5.80;3.00;;;12.60;99.90;;;;;;5017181;28;20034;-59
2022/06/07 02:18:28;;;;;;;7.43;2.85;;;12.50;99.90;;;;;;5018085;28;20037;-59
2022/06/07 02:21:00;;;;;;;8.77;2.70;;;12.50;99.90;;;;;;5016797;28;20034;-60
2022/06/07 02:23:31;;;;;;;7.50;2.70;;;12.40;99.90;;;;;;5000285;28;20042;-59
2022/06/07 02:26:00;;;;;;;5.25;2.40;;;12.40;99.90;;;;;;5016337;28;20338;-59
2022/06/07 02:28:32;;;;;;;4.65;2.70;;;12.30;99.90;;;;;;5017353;28;20022;-60
2022/06/07 02:30:59;;;;;;;6.85;3.17;;;12.40;99.90;;;;;;5017285;28;20029;-61
2022/06/07 02:33:27;;;;;;;4.20;3.05;;;12.40;99.90;;;;;;5017835;28;20267;-59
2022/06/07 02:35:54;;;;;;;5.10;3.25;;;12.30;99.90;;;;;;5017119;28;20073;-60
2022/06/07 02:38:20;;;;;;;3.95;2.60;;;12.30;99.90;;;;;;5017214;28;20088;-60
2022/06/07 02:40:49;;;;;;;6.35;3.13;;;12.40;99.90;;;;;;5017591;28;20068;-60
2022/06/07 02:43:15;;;;;;;3.90;3.30;;;12.40;99.90;;;;;;5017153;28;20026;-60
2022/06/07 02:45:41;;;;;;;4.82;3.25;;;12.50;99.90;;;;;;5016440;28;20080;-60
2022/06/07 02:48:07;;;;;;;8.48;3.15;;;12.60;99.90;;;;;;5017662;28;20408;-60
2022/06/07 02:50:34;;;;;;;7.75;3.50;;;12.50;99.90;;;;;;5016244;28;20065;-60
2022/06/07 02:52:59;;;;;;;5.70;3.20;;;12.50;99.90;;;;;;5017025;28;20064;-62
2022/06/07 02:55:29;;;;;;;4.50;3.40;;;12.50;99.90;;;;;;5016107;28;20034;-60
2022/06/07 02:58:00;;;;;;;4.22;3.55;;;12.50;99.90;;;;;;5016281;28;20312;-60
2022/06/07 03:00:28;;;;;;;7.18;3.67;;;12.50;99.90;;;;;;5016127;28;20075;-60
2022/06/07 03:02:54;;;;;;;5.57;3.28;;;12.50;99.90;;;;;;5015793;28;20053;-60
2022/06/07 03:05:22;;;;;;;8.48;3.83;;;12.40;99.90;;;;;;4999937;28;20308;-60
2022/06/07 03:07:52;;;;;;;4.47;3.55;;;12.20;99.90;;;;;;5016161;28;20125;-59
2022/06/07 03:10:19;;;;;;;5.95;3.72;;;12.30;99.90;;;;;;5017242;28;20416;-60
2022/06/07 03:12:46;;;;;;;5.30;4.00;;;12.30;99.90;;;;;;4999867;28;20115;-60
2022/06/07 03:15:16;;;;;;;6.50;3.90;;;12.40;99.90;;;;;;5016451;28;20041;-60
2022/06/07 03:17:43;;;;;;;5.18;3.97;;;12.40;99.90;;;;;;5015948;28;20048;-59
2022/06/07 03:20:11;;;;;;;7.90;3.88;;;12.30;99.90;;;;;;5015935;28;20037;-60
2022/06/07 03:22:39;;;;;;;6.32;3.65;;;12.30;99.90;;;;;;5015979;28;20030;-59
2022/06/07 03:25:07;;;;;;;4.40;3.30;;;12.10;99.90;;;;;;5015914;28;20325;-60
2022/06/07 03:27:36;;;;;;;4.38;3.30;;;12.10;99.90;;;;;;4999850;28;20057;-60
2022/06/07 03:30:07;;;;;;;4.72;3.33;;;12.20;99.90;;;;;;5016538;28;20405;-59
2022/06/07 03:32:34;;;;;;;6.35;3.38;;;12.20;99.90;;;;;;5016587;28;20040;-60
2022/06/07 03:35:01;;;;;;;6.72;3.30;;;12.20;99.90;;;;;;5015966;28;20310;-60
2022/06/07 03:37:28;;;;;;;4.55;2.92;;;12.20;99.90;;;;;;5016645;28;20069;-60
2022/06/07 03:39:54;;;;;;;9.90;3.40;;;12.20;99.90;;;;;;5004012;28;20038;-59
2022/06/07 03:42:20;;;;;;;3.75;3.35;;;12.20;99.90;;;;;;5020062;28;20325;-60
2022/06/07 03:44:48;;;;;;;5.97;3.85;;;12.20;99.90;;;;;;5019278;28;20408;-60
2022/06/07 03:47:18;;;;;;;7.20;4.50;;;12.10;99.90;;;;;;5019123;28;20394;-60
2022/06/07 03:49:46;;;;;;;6.32;4.20;;;12.20;99.90;;;;;;5019446;28;20124;-60
2022/06/07 03:52:14;;;;;;;6.70;4.68;;;12.30;99.90;;;;;;5019314;28;20056;-60
2022/06/07 03:54:43;;;;;;;7.20;4.93;;;12.20;99.90;;;;;;5019013;28;20368;-60
2022/06/07 03:57:10;;;;;;;5.20;4.68;;;12.20;99.90;;;;;;5019969;28;20026;-61
2022/06/07 03:59:38;;;;;;;8.25;4.80;;;12.10;99.90;;;;;;5019187;28;20133;-61
2022/06/07 04:02:05;;;;;;;8.30;5.65;;;12.10;99.90;;;;;;5018965;28;20073;-60
2022/06/07 04:04:33;;;;;;;8.35;5.18;;;12.10;99.90;;;;;;5019088;28;20334;-59
2022/06/07 04:09:51;;;;;;;6.03;4.82;;;12.10;99.90;;;;;;5019381;28;20325;-60
2022/06/07 04:12:24;;;;;;;12.02;5.07;;;12.10;99.90;;;;;;5018976;28;20056;-60
2022/06/07 04:14:51;;;;;;;5.95;4.63;;;12.10;99.90;;;;;;5019033;28;20042;-60
2022/06/07 04:17:19;;;;;;;6.68;5.20;;;12.10;99.90;;;;;;5018935;28;20369;-60
2022/06/07 04:19:50;;;;;;;6.95;5.00;;;12.10;99.90;;;;;;5018898;28;20044;-60
2022/06/07 04:22:18;;;;;;;7.40;5.43;;;12.30;99.90;;;;;;5018658;28;20030;-60
2022/06/07 04:24:51;;;;;;;8.80;5.80;;;12.30;99.90;;;;;;5018617;28;20038;-60
2022/06/07 04:27:19;;;;;;;8.48;6.00;;;12.30;99.90;;;;;;5018419;28;20133;-60
2022/06/07 04:29:49;;;;;;;11.25;6.55;;;12.30;99.90;;;;;;5002910;28;20026;-61
2022/06/07 04:32:16;;;;;;;10.43;5.60;;;12.30;99.90;;;;;;5018544;28;20117;-60
2022/06/07 04:34:44;;;;;;;6.82;5.72;;;12.20;99.90;;;;;;5018354;28;20030;-60
2022/06/07 04:37:13;;;;;;;10.27;6.20;;;12.20;99.90;;;;;;5002429;28;20022;-59
2022/06/07 04:39:39;;;;;;;10.15;5.53;;;12.20;99.90;;;;;;5018418;28;20381;-60
2022/06/07 04:42:09;;;;;;;10.20;5.90;;;12.20;99.90;;;;;;5002509;28;20041;-60
2022/06/07 04:44:53;;;;;;;9.43;6.07;;;12.20;99.90;;;;;;5019269;28;20057;-60
2022/06/07 04:47:27;;;;;;;6.78;5.72;;;12.20;99.90;;;;;;5018150;28;20053;-60
2022/06/07 04:49:53;;;;;;;7.80;5.57;;;12.30;99.90;;;;;;5018116;28;20409;-60
2022/06/07 04:52:19;;;;;;;6.65;4.97;;;12.30;99.90;;;;;;5018223;28;20034;-60
2022/06/07 04:54:45;;;;;;;8.13;6.13;;;12.30;99.90;;;;;;5017932;28;20037;-59
2022/06/07 04:57:11;;;;;;;6.72;5.70;;;12.40;99.90;;;;;;5017963;28;20088;-60
2022/06/07 04:59:41;;;;;;;7.22;5.80;;;12.50;99.90;;;;;;5018098;28;20421;-60
2022/06/07 05:02:08;;;;;;;6.28;5.13;;;12.60;99.90;;;;;;5001426;28;20112;-60
2022/06/07 05:04:34;;;;;;;10.48;5.68;;;12.80;99.90;;;;;;5017924;28;20040;-60
2022/06/07 05:07:11;;;;;;;6.57;5.05;;;12.90;99.90;;;;;;5018720;28;20446;-60
2022/06/07 05:09:49;;;;;;;5.53;4.97;;;13.10;99.90;;;;;;5017922;28;20064;-60
2022/06/07 05:12:22;;;;;;;7.80;5.10;;;13.10;99.90;;;;;;5017788;28;20080;-60
2022/06/07 05:14:51;;;;;;;9.90;4.75;;;13.00;99.90;;;;;;5017659;28;20088;-60
2022/06/07 05:17:25;;;;;;;7.57;4.80;;;12.90;99.90;;;;;;5017732;28;20030;-60
2022/06/07 05:19:55;;;;;;;11.57;5.28;;;12.80;99.90;;;;;;5001876;28;20347;-60
2022/06/07 05:22:21;;;;;;;7.43;5.28;;;12.90;99.90;;;;;;5001375;28;20038;-60
2022/06/07 05:24:51;;;;;;;7.20;5.35;;;12.90;99.90;;;;;;5017533;28;20026;-60
2022/06/07 05:27:22;;;;;;;8.38;5.47;;;13.00;99.90;;;;;;5018297;28;20379;-60
2022/06/07 05:29:56;;;;;;;8.50;5.20;;;13.10;99.90;;;;;;4985057;28;20018;-61
2022/06/07 05:32:48;;;;;;;5.65;5.03;;;13.30;99.90;;;;;;5015072;28;20030;-61
2022/06/07 05:35:23;;;;;;;4.95;4.35;;;13.60;99.90;;;;;;5017312;28;20038;-60
2022/06/07 05:38:03;;;;;;;9.40;5.10;;;13.80;99.90;;;;;;5002993;28;20339;-59
2022/06/07 05:40:32;;;;;;;5.65;4.18;;;13.80;99.90;;;;;;5017250;28;20113;-60
2022/06/07 05:42:58;;;;;;;6.88;4.30;;;13.90;99.90;;;;;;5017161;28;20068;-60
2022/06/07 05:45:34;;;;;;;7.47;4.05;;;14.10;99.90;;;;;;5017116;28;20038;-60
2022/06/07 05:48:06;;;;;;;8.38;4.07;;;14.10;99.90;;;;;;5018285;28;20279;-60
2022/06/07 05:50:40;;;;;;;4.32;3.38;;;14.10;99.90;;;;;;5017264;28;20068;-59
2022/06/07 05:53:07;;;;;;;6.10;4.10;;;14.00;99.90;;;;;;5017158;28;20053;-60
2022/06/07 05:55:32;;;;;;;6.35;3.75;;;14.00;99.90;;;;;;4984437;28;20437;-59
2022/06/07 05:57:59;;;;;;;5.20;3.40;;;14.30;99.90;;;;;;5017167;28;20275;-59
2022/06/07 06:00:26;;;;;;;6.10;3.20;;;14.50;99.90;;;;;;4999988;28;20040;-58
2022/06/07 06:02:52;;;;;;;4.68;3.50;;;14.40;99.90;;;;;;5016600;28;20096;-60
2022/06/07 06:05:33;;;;;;;5.22;3.25;;;14.60;99.90;;;;;;5016846;28;20126;-59
2022/06/07 06:11:06;;;;;;;7.32;2.85;;;14.60;99.90;;;;;;5017057;28;20314;-62
2022/06/07 06:13:33;;;;;;;8.45;3.15;;;15.00;99.90;;;;;;5016690;28;20287;-58
2022/06/07 06:16:01;;;;;;;3.95;2.40;;;15.30;99.90;;;;;;5016579;28;20025;-57
2022/06/07 06:18:29;;;;;;;5.35;3.15;;;15.60;99.90;;;;;;5016613;28;20369;-62
2022/06/07 06:20:55;;;;;;;5.50;2.92;;;15.50;99.90;;;;;;5016560;28;20034;-63
2022/06/07 06:23:25;;;;;;;5.38;2.90;;;15.50;99.90;;;;;;5016698;28;20057;-62
2022/06/07 06:25:52;;;;;;;4.75;3.00;;;15.50;99.90;;;;;;5016666;28;20034;-61
2022/06/07 06:28:19;;;;;;;7.05;3.20;;;15.50;99.90;;;;;;5016616;28;20301;-62
2022/06/07 06:30:47;;;;;;;6.88;2.88;;;15.60;99.90;;;;;;5016673;28;20030;-62
2022/06/07 06:33:20;;;;;;;4.18;2.60;;;15.90;99.90;;;;;;5016830;28;20298;-62
2022/06/07 06:35:54;;;;;;;5.10;2.40;;;16.20;99.90;;;;;;5016393;28;20053;-61
2022/06/07 06:38:24;;;;;;;3.63;2.22;;;16.10;99.90;;;;;;5016580;28;20026;-61
2022/06/07 06:40:51;;;;;;;5.68;2.38;;;16.10;99.90;;;;;;5016287;28;20045;-63
2022/06/07 06:43:18;;;;;;;4.65;2.35;;;16.10;99.90;;;;;;5017309;28;20306;-63
2022/06/07 06:46:12;;;;;;;4.15;2.60;;;16.10;99.90;;;;;;5016875;28;20080;-61
2022/06/07 06:48:43;;;;;;;3.63;2.25;;;16.30;99.90;;;;;;5016638;28;20406;-63
2022/06/07 06:51:12;;;;;;;5.38;2.20;;;16.70;99.90;;;;;;5016240;28;20034;-62
2022/06/07 06:53:41;;;;;;;3.95;2.25;;;16.40;99.90;;;;;;5016328;28;20099;-62
2022/06/07 06:56:20;;;;;;;5.85;2.20;;;16.40;99.90;;;;;;5001377;28;20136;-63
2022/06/07 06:58:47;;;;;;;5.40;2.55;;;16.20;99.90;;;;;;5017005;28;20428;-62
2022/06/07 07:01:22;;;;;;;8.15;2.78;;;15.90;99.90;;;;;;5015989;28;20022;-62
2022/06/07 07:03:49;;;;;;;5.15;2.55;;;16.20;99.90;;;;;;5016482;28;20037;-66
2022/06/07 07:06:20;;;;;;;4.38;2.30;;;16.40;99.90;;;;;;5000293;28;20026;-66
2022/06/07 07:08:47;;;;;;;8.27;2.60;;;16.50;99.90;;;;;;5016065;28;20045;-66
2022/06/07 07:11:24;;;;;;;6.38;2.70;;;17.10;99.90;;;;;;5015941;28;20040;-68
2022/06/07 07:13:55;;;;;;;5.15;2.33;;;17.40;99.90;;;;;;5002976;28;20037;-69
2022/06/07 07:16:26;;;;;;;4.35;2.20;;;17.70;99.90;;;;;;5003595;28;20034;-68
2022/06/07 07:18:52;;;;;;;4.07;2.20;;;17.90;99.90;;;;;;5020499;28;20405;-61
2022/06/07 07:21:22;;;;;;;4.97;2.30;;;18.10;99.90;;;;;;5003581;28;20038;-64
2022/06/07 07:23:49;;;;;;;4.68;2.20;;;18.00;99.90;;;;;;5019616;28;20342;-64
2022/06/07 07:26:22;;;;;;;4.25;2.30;;;17.90;99.90;;;;;;5019714;28;20033;-68
2022/06/07 07:28:52;;;;;;;5.35;2.60;;;18.00;99.90;;;;;;5019704;28;20045;-63
2022/06/07 07:31:23;;;;;;;8.77;2.42;;;18.00;99.90;;;;;;5020445;28;20038;-64
2022/06/07 07:33:50;;;;;;;5.72;2.13;;;18.00;99.90;;;;;;5019543;28;20026;-64
2022/06/07 07:36:16;;;;;;;4.00;2.00;;;17.80;99.90;;;;;;5020256;28;20034;-65
2022/06/07 07:38:43;;;;;;;4.88;2.20;;;18.00;99.90;;;;;;5019531;28;20053;-65
2022/06/07 07:41:21;;;;;;;5.90;1.95;;;18.00;99.90;;;;;;5019660;28;20454;-65
2022/06/07 07:43:50;;;;;;;6.25;2.38;;;18.00;99.90;;;;;;5019548;28;20022;-66
2022/06/07 07:46:20;;;;;;;5.43;1.90;;;18.10;99.90;;;;;;5019584;28;20125;-66
2022/06/07 07:48:46;;;;;;;5.53;2.13;;;18.40;99.90;;;;;;5019688;28;20033;-67
2022/06/07 07:51:22;;;;;;;3.55;2.00;;;18.50;99.90;;;;;;5019265;28;20034;-68
2022/06/07 07:53:50;;;;;;;6.05;2.05;;;18.00;99.90;;;;;;5019565;28;20030;-64
2022/06/07 07:56:18;;;;;;;8.10;2.33;;;17.80;99.90;;;;;;5019116;28;20397;-64
2022/06/07 07:58:45;;;;;;;5.50;2.22;;;17.70;99.90;;;;;;5019224;28;20033;-66
2022/06/07 08:01:16;;;;;;;3.47;1.98;;;17.50;99.90;;;;;;5018845;28;20125;-66
2022/06/07 08:03:43;;;;;;;4.13;1.90;;;17.00;99.90;;;;;;5019080;28;20126;-65
2022/06/07 08:06:17;;;;;;;7.80;2.20;;;16.90;99.90;;;;;;5019077;28;20393;-63
2022/06/07 08:08:45;;;;;;;4.22;1.90;;;17.00;99.90;;;;;;5020349;28;20026;-66
2022/06/07 08:11:12;;;;;;;9.20;2.40;;;17.30;99.90;;;;;;5020056;28;20049;-65
2022/06/07 08:13:38;;;;;;;5.28;2.30;;;17.70;99.90;;;;;;5019693;28;20026;-65
2022/06/07 08:16:06;;;;;;;4.78;1.85;;;17.90;99.90;;;;;;5019395;28;20046;-62
2022/06/07 08:18:33;;;;;;;3.85;1.98;;;17.80;99.90;;;;;;5018835;28;20022;-61
2022/06/07 08:21:08;;;;;;;5.75;1.63;;;17.90;99.90;;;;;;5019490;28;20034;-62
2022/06/07 08:23:34;;;;;;;2.72;1.35;;;18.00;99.90;;;;;;5019342;28;20034;-63
2022/06/07 08:26:01;;;;;;;4.95;1.55;;;18.20;99.90;;;;;;5018722;28;20141;-63
2022/06/07 08:28:27;;;;;;;4.82;1.95;;;17.90;99.90;;;;;;5019350;28;20110;-64
2022/06/07 08:30:53;;;;;;;5.10;1.60;;;18.30;99.90;;;;;;5019460;28;20030;-66
2022/06/07 08:39:05;;;;;;;4.38;1.50;;;18.10;99.90;;;;;;5019134;28;20026;-65
2022/06/07 08:41:49;;;;;;;4.65;1.60;;;17.60;99.90;;;;;;5018866;28;20030;-63
2022/06/07 08:44:50;;;;;;;4.15;1.42;;;18.00;99.90;;;;;;5019023;28;20034;-64
2022/06/07 08:47:38;;;;;;;3.17;1.38;;;18.10;99.90;;;;;;5010260;28;20137;-64
2022/06/07 08:50:18;;;;;;;3.80;1.30;;;18.00;99.90;;;;;;5018914;28;20113;-65
2022/06/07 08:52:46;;;;;;;3.00;1.70;;;17.70;99.90;;;;;;5018753;28;20124;-64
2022/06/07 08:55:27;;;;;;;4.65;1.50;;;17.60;99.90;;;;;;5018582;28;20030;-64
2022/06/07 08:58:10;;;;;;;2.45;1.33;;;17.80;99.90;;;;;;5018752;28;20022;-65
2022/06/07 09:00:40;;;;;;;3.90;1.50;;;17.70;99.90;;;;;;5018780;28;20382;-64
2022/06/07 09:03:25;;;;;;;4.25;1.40;;;18.20;99.90;;;;;;5017678;28;20038;-66
2022/06/07 09:05:56;;;;;;;5.63;1.50;;;18.20;99.90;;;;;;5017991;28;20109;-65
2022/06/07 09:08:23;;;;;;;5.35;1.42;;;18.50;99.90;;;;;;5018687;28;20093;-64
2022/06/07 09:13:46;;;;;;;5.18;1.42;;;18.80;99.90;;;;;;5000220;28;20046;-66
2022/06/07 09:16:12;;;;;;;1.90;0.95;;;19.20;99.90;;;;;;5018693;28;20268;-68
2022/06/07 09:18:40;;;;;;;3.00;1.00;;;19.40;99.90;;;;;;5018518;28;20041;-64
2022/06/07 09:21:16;;;;;;;3.60;1.30;;;19.20;99.90;;;;;;5018440;28;20034;-64
2022/06/07 09:23:46;;;;;;;3.45;1.38;;;19.50;99.90;;;;;;5017564;28;20022;-61
2022/06/07 09:26:37;;;;;;;4.25;1.30;;;20.00;99.90;;;;;;5018595;28;20030;-62
2022/06/07 09:29:22;;;;;;;2.35;1.10;;;19.90;99.90;;;;;;5018292;28;20125;-64
2022/06/07 09:31:51;;;;;;;2.15;1.25;;;19.60;99.90;;;;;;5018532;28;20045;-64
2022/06/07 09:34:29;;;;;;;3.40;0.98;;;19.80;99.90;;;;;;5018105;28;20034;-64
2022/06/07 09:36:59;;;;;;;2.78;1.35;;;19.80;99.90;;;;;;5017866;28;20105;-64
2022/06/07 09:39:34;;;;;;;3.65;1.05;;;19.00;99.90;;;;;;5018694;28;20030;-61
2022/06/07 09:42:24;;;;;;;2.47;0.80;;;18.70;99.90;;;;;;5018022;28;20398;-61
2022/06/07 09:44:58;;;;;;;4.55;0.98;;;18.50;99.90;;;;;;5018273;28;20085;-65
2022/06/07 09:47:25;;;;;;;2.95;1.08;;;19.00;99.90;;;;;;5017115;28;20036;-65
2022/06/07 09:49:57;;;;;;;1.23;0.80;;;19.50;99.90;;;;;;5017691;28;20377;-66
2022/06/07 09:52:43;;;;;;;4.63;1.20;;;19.40;99.90;;;;;;5017076;28;20045;-63
2022/06/07 09:55:45;;;;;;;3.05;1.00;;;19.60;99.90;;;;;;5017581;28;20038;-62
2022/06/07 09:58:42;;;;;;;3.90;1.10;;;19.80;99.90;;;;;;5017755;28;20026;-64
2022/06/07 10:01:15;;;;;;;3.53;1.30;;;20.10;99.90;;;;;;5016810;28;20026;-61
2022/06/07 10:04:03;;;;;;;3.50;1.23;;;19.80;99.90;;;;;;5017191;28;20454;-64
2022/06/07 10:06:37;;;;;;;4.95;1.38;;;19.40;99.90;;;;;;5017137;28;20041;-67
2022/06/07 10:09:08;;;;;;;1.75;1.02;;;19.80;99.90;;;;;;5016873;28;20372;-61
2022/06/07 10:12:04;;;;;;;3.00;1.30;;;19.40;99.90;;;;;;5017910;28;20385;-63
2022/06/07 10:15:14;;;;;;;3.33;1.33;;;19.70;99.90;;;;;;5015740;28;20351;-65
2022/06/07 10:17:54;;;;;;;2.17;1.33;;;19.20;99.90;;;;;;5007641;28;20045;-64
2022/06/07 10:21:02;;;;;;;4.47;1.38;;;19.40;99.90;;;;;;5018056;28;20026;-62
2022/06/07 10:24:02;;;;;;;3.35;1.23;;;19.70;99.90;;;;;;5017049;28;20034;-65
2022/06/07 10:26:47;;;;;;;2.70;1.40;;;21.00;99.90;;;;;;5017122;28;20305;-62
2022/06/07 10:29:27;;;;;;;5.25;1.90;;;21.40;99.90;;;;;;5017323;28;20037;-66
2022/06/07 10:32:09;;;;;;;4.45;1.75;;;20.10;99.90;;;;;;5016568;28;20029;-64
2022/06/07 10:34:46;;;;;;;3.93;2.03;;;19.80;99.90;;;;;;5017830;28;20105;-65
2022/06/07 10:37:46;;;;;;;5.03;2.28;;;19.50;99.90;;;;;;5017077;28;20296;-63
2022/06/07 10:40:40;;;;;;;5.05;1.88;;;19.20;99.90;;;;;;5016548;28;20034;-64
2022/06/07 10:43:15;;;;;;;4.82;1.70;;;19.00;99.90;;;;;;5016342;28;20026;-65
2022/06/07 10:45:42;;;;;;;1.85;1.52;;;19.10;99.90;;;;;;5017474;28;20042;-65
2022/06/07 10:48:21;;;;;;;3.20;1.40;;;19.40;99.90;;;;;;5016940;28;20104;-66
2022/06/07 10:51:06;;;;;;;3.42;1.50;;;19.20;99.90;;;;;;5017715;28;20363;-64
2022/06/07 10:53:44;;;;;;;1.98;1.60;;;19.60;99.90;;;;;;5017114;28;20034;-65
2022/06/07 10:56:24;;;;;;;2.22;1.50;;;20.10;99.90;;;;;;5017384;28;20171;-62
2022/06/07 10:58:55;;;;;;;2.33;1.52;;;20.70;99.90;;;;;;5016298;28;20276;-63
2022/06/07 11:01:27;;;;;;;2.40;1.70;;;21.10;99.90;;;;;;5016757;28;20087;-64
2022/06/07 11:10:28;;;;;;;2.30;2.17;;;19.60;99.90;;;;;;5016954;28;20036;-63
2022/06/07 11:13:07;;;;;;;3.47;2.10;;;19.40;99.90;;;;;;5016875;28;20052;-60
2022/06/07 11:15:57;;;;;;;2.10;1.90;;;19.10;99.90;;;;;;5016799;28;20034;-62
2022/06/07 11:18:25;;;;;;;5.72;2.60;;;19.60;99.90;;;;;;5016822;28;20029;-63
2022/06/07 11:21:20;;;;;;;5.43;2.92;;;19.50;99.90;;;;;;5016770;28;20030;-62
2022/06/07 11:23:56;;;;;;;3.15;2.75;;;19.40;99.90;;;;;;5017426;28;20390;-64
2022/06/07 11:26:22;;;;;;;3.63;2.90;;;19.60;99.90;;;;;;5016712;28;20026;-63
2022/06/07 11:28:53;;;;;;;2.63;2.42;;;19.60;99.90;;;;;;5016710;28;20062;-62
2022/06/07 11:31:26;;;;;;;3.33;2.90;;;19.80;99.90;;;;;;5016745;28;20123;-62
2022/06/07 11:33:51;;;;;;;3.95;2.83;;;19.60;99.90;;;;;;5017330;28;20038;-62
2022/06/07 11:36:20;;;;;;;4.72;3.50;;;19.60;99.90;;;;;;5016545;28;20033;-61
2022/06/07 11:38:55;;;;;;;3.45;2.30;;;19.40;99.90;;;;;;5016902;28;20360;-61
2022/06/07 11:41:39;;;;;;;2.70;2.50;;;19.20;99.90;;;;;;5016652;28;20038;-61
2022/06/07 11:44:10;;;;;;;3.60;2.28;;;18.90;99.90;;;;;;5016238;28;20377;-62
2022/06/07 11:46:39;;;;;;;4.43;2.60;;;18.80;99.90;;;;;;5016506;28;20029;-63
2022/06/07 11:49:20;;;;;;;2.63;2.42;;;19.10;99.90;;;;;;5016497;28;20754;-61
2022/06/07 11:51:57;;;;;;;2.78;2.53;;;19.30;99.90;;;;;;5016553;28;20030;-64
2022/06/07 11:54:33;;;;;;;3.08;2.40;;;19.10;99.90;;;;;;5016142;28;20057;-62
2022/06/07 11:57:34;;;;;;;3.83;2.05;;;19.70;99.90;;;;;;5016678;28;20041;-63
2022/06/07 12:00:18;;;;;;;3.33;1.80;;;20.60;99.90;;;;;;4997592;28;20136;-63
2022/06/07 12:02:56;;;;;;;2.83;1.70;;;21.60;99.90;;;;;;5002658;28;20270;-64
2022/06/07 12:05:45;;;;;;;1.70;1.42;;;21.90;99.90;;;;;;5020215;28;20030;-63
2022/06/07 12:08:19;;;;;;;2.28;1.42;;;22.60;99.90;;;;;;5019880;28;20065;-63
2022/06/07 12:11:03;;;;;;;3.30;1.30;;;23.10;99.90;;;;;;5018990;28;20104;-62
2022/06/07 12:13:49;;;;;;;2.78;0.88;;;23.30;99.90;;;;;;5019605;28;20040;-64
2022/06/07 12:16:41;;;;;;;3.47;1.00;;;22.90;99.90;;;;;;5019499;28;20279;-63
2022/06/07 12:19:18;;;;;;;0.75;0.60;;;23.40;99.90;;;;;;5019621;28;20052;-63
2022/06/07 12:21:56;;;;;;;4.05;0.90;;;22.90;99.90;;;;;;5018748;28;20037;-63
2022/06/07 12:24:23;;;;;;;0.75;0.50;;;24.50;99.90;;;;;;5019752;28;20451;-64
2022/06/07 12:26:50;;;;;;;2.03;0.70;;;26.80;99.90;;;;;;5019348;28;20037;-64
2022/06/07 12:29:34;;;;;;;1.80;0.85;;;27.40;99.90;;;;;;5019368;28;20033;-62
2022/06/07 12:32:06;;;;;;;0.98;0.57;;;25.60;99.90;;;;;;5019323;28;20053;-63
2022/06/07 12:34:35;;;;;;;1.08;0.60;;;25.40;99.90;;;;;;5019332;28;20057;-63
2022/06/07 12:37:09;;;;;;;1.65;0.50;;;25.60;99.90;;;;;;5019129;28;20022;-64
2022/06/07 12:39:49;;;;;;;1.92;0.50;;;24.80;99.90;;;;;;5019738;28;20084;-64
2022/06/07 12:42:16;;;;;;;1.58;0.57;;;26.10;99.90;;;;;;5019326;28;20030;-64
2022/06/07 12:45:00;;;;;;;1.00;0.50;;;25.80;99.90;;;;;;5019187;28;20026;-63
2022/06/07 12:47:31;;;;;;;1.50;0.50;;;27.00;99.90;;;;;;5019344;28;20406;-64
2022/06/07 12:49:57;;;;;;;1.65;0.40;;;26.00;99.90;;;;;;5019629;28;20410;-65
2022/06/07 12:52:26;;;;;;;0.70;0.47;;;25.90;99.90;;;;;;5018445;28;20029;-64
2022/06/07 12:55:24;;;;;;;3.85;0.60;;;24.10;99.90;;;;;;5018903;28;20034;-64
2022/06/07 12:57:56;;;;;;;2.25;0.60;;;23.50;99.90;;;;;;5018692;28;20038;-64
2022/06/07 13:00:25;;;;;;;0.85;0.55;;;24.40;99.90;;;;;;5018074;28;20044;-65
2022/06/07 13:03:02;;;;;;;2.03;0.77;;;23.70;99.90;;;;;;5018386;28;20074;-66
2022/06/07 13:05:32;;;;;;;3.05;0.50;;;23.30;99.90;;;;;;5018932;28;20030;-66
2022/06/07 13:08:00;;;;;;;2.33;0.60;;;23.40;99.90;;;;;;5017911;28;20085;-64
2022/06/07 13:10:28;;;;;;;3.63;0.85;;;22.80;99.90;;;;;;5016878;28;20026;-65
2022/06/07 13:12:57;;;;;;;1.10;0.60;;;22.30;99.90;;;;;;5018533;28;20294;-66
2022/06/07 13:15:26;;;;;;;1.77;0.52;;;21.90;99.90;;;;;;5018372;28;20038;-63
2022/06/07 13:17:57;;;;;;;2.10;0.90;;;22.10;99.90;;;;;;5017515;28;20026;-65
2022/06/07 13:20:32;;;;;;;3.63;0.80;;;22.70;99.90;;;;;;5018340;28;20025;-64
2022/06/07 13:22:58;;;;;;;1.35;0.70;;;21.70;99.90;;;;;;5018424;28;20389;-65
2022/06/07 13:25:31;;;;;;;1.35;0.88;;;21.70;99.90;;;;;;5018305;28;20030;-62
2022/06/07 13:28:06;;;;;;;1.88;0.68;;;21.60;99.90;;;;;;5018307;28;20100;-63
2022/06/07 13:30:32;;;;;;;3.35;0.70;;;20.90;99.90;;;;;;5018276;28;20389;-63
2022/06/07 13:33:03;;;;;;;1.20;0.73;;;20.90;99.90;;;;;;5018142;28;20022;-62
2022/06/07 13:35:40;;;;;;;0.88;0.65;;;21.50;99.90;;;;;;5018342;28;20291;-65
2022/06/07 13:38:23;;;;;;;2.05;0.70;;;22.00;99.90;;;;;;5018047;28;20091;-65